Time;durP1;ratioP1;P1;durP2;ratioP2;P2;SDS_P1;SDS_P2;PMS_P1;PMS_P2;Temp;Humidity;BMP_temperature;BMP_pressure;BME280_temperature;BME280_humidity;BME280_pressure;Samples;Min_cycle;Max_cycle;Signal;HPM_P1;HPM_P2
2020/12/21 00:01:57;;;;;;;3.37;1.13;;;8.50;99.90;;;;;;4956193;28;20205;-68
2020/12/21 00:04:22;;;;;;;4.55;1.15;;;8.60;99.90;;;;;;4956378;28;20697;-67
2020/12/21 00:06:55;;;;;;;1.13;1.03;;;8.70;99.90;;;;;;4956371;28;20216;-67
2020/12/21 00:09:22;;;;;;;2.85;1.00;;;8.60;99.90;;;;;;4956126;28;20633;-67
2020/12/21 00:11:48;;;;;;;3.08;1.10;;;8.60;99.90;;;;;;4956417;28;20428;-68
2020/12/21 00:14:14;;;;;;;1.05;1.05;;;8.60;99.90;;;;;;4956121;28;20180;-67
2020/12/21 00:16:42;;;;;;;0.77;0.77;;;8.70;99.90;;;;;;4956193;28;20200;-67
2020/12/21 00:19:09;;;;;;;0.75;0.70;;;8.70;99.90;;;;;;4956126;28;20263;-67
2020/12/21 00:21:36;;;;;;;3.00;1.17;;;8.80;99.90;;;;;;4955844;28;20233;-67
2020/12/21 00:24:01;;;;;;;0.85;0.85;;;8.70;99.90;;;;;;4956599;28;20623;-68
2020/12/21 00:26:27;;;;;;;0.87;0.60;;;8.60;99.90;;;;;;4956062;28;20348;-67
2020/12/21 00:28:53;;;;;;;5.27;1.20;;;8.60;99.90;;;;;;4955637;28;20407;-68
2020/12/21 00:31:27;;;;;;;0.90;0.90;;;8.60;99.90;;;;;;4955713;28;20604;-68
2020/12/21 00:33:53;;;;;;;1.17;0.80;;;8.50;99.90;;;;;;4956235;28;20268;-67
2020/12/21 00:36:20;;;;;;;0.70;0.70;;;8.30;99.90;;;;;;4955781;28;20203;-68
2020/12/21 00:38:46;;;;;;;2.28;1.20;;;8.40;99.90;;;;;;4955755;28;20188;-67
2020/12/21 00:41:17;;;;;;;2.05;0.80;;;8.40;99.90;;;;;;4955813;28;20708;-67
2020/12/21 00:43:45;;;;;;;1.40;0.68;;;8.50;99.90;;;;;;4955907;28;20164;-67
2020/12/21 00:46:23;;;;;;;2.45;0.85;;;8.30;99.90;;;;;;4955594;28;20226;-67
2020/12/21 00:48:49;;;;;;;1.05;0.95;;;8.40;99.90;;;;;;4955593;28;20260;-67
2020/12/21 00:51:15;;;;;;;3.20;1.00;;;8.30;99.90;;;;;;4955650;28;20190;-67
2020/12/21 00:53:42;;;;;;;1.45;1.15;;;8.40;99.90;;;;;;4955753;28;20533;-67
2020/12/21 00:56:08;;;;;;;0.90;0.90;;;8.30;99.90;;;;;;4955623;28;20718;-68
2020/12/21 00:58:35;;;;;;;7.27;1.13;;;8.20;99.90;;;;;;4955556;28;20255;-68
2020/12/21 01:01:04;;;;;;;1.40;1.30;;;8.10;99.90;;;;;;4954142;29;20188;-67
2020/12/21 01:03:30;;;;;;;1.05;0.90;;;8.20;99.90;;;;;;4955461;28;20267;-67
2020/12/21 01:05:56;;;;;;;1.30;0.87;;;8.20;99.90;;;;;;4955293;28;20197;-67
2020/12/21 01:08:22;;;;;;;2.75;1.05;;;8.10;99.90;;;;;;4955350;28;20176;-67
2020/12/21 01:10:48;;;;;;;1.23;1.00;;;8.20;99.90;;;;;;4955555;28;20263;-67
2020/12/21 01:13:14;;;;;;;1.45;0.75;;;8.00;99.90;;;;;;4955276;28;20414;-67
2020/12/21 01:15:40;;;;;;;1.35;0.75;;;8.10;99.90;;;;;;4955424;28;20180;-67
2020/12/21 01:18:06;;;;;;;0.60;0.60;;;8.20;99.90;;;;;;4955249;29;20183;-67
2020/12/21 01:20:31;;;;;;;1.37;1.00;;;8.30;99.90;;;;;;4955288;28;20704;-67
2020/12/21 01:22:57;;;;;;;0.83;0.73;;;8.30;99.90;;;;;;4955058;28;20302;-68
2020/12/21 01:25:22;;;;;;;1.07;0.97;;;8.30;99.90;;;;;;4955302;28;20212;-68
2020/12/21 01:27:48;;;;;;;0.80;0.80;;;8.30;99.90;;;;;;4955216;28;20665;-67
2020/12/21 01:30:14;;;;;;;1.57;0.70;;;8.30;99.90;;;;;;4955224;28;20615;-67
2020/12/21 01:32:39;;;;;;;0.90;0.90;;;8.40;99.90;;;;;;4954944;28;20569;-67
2020/12/21 01:35:05;;;;;;;1.10;0.88;;;8.20;99.90;;;;;;4955323;28;20235;-68
2020/12/21 01:37:31;;;;;;;2.10;1.00;;;8.20;99.90;;;;;;4955046;28;20671;-67
2020/12/21 01:39:57;;;;;;;1.07;0.87;;;8.30;99.90;;;;;;4955094;28;20196;-67
2020/12/21 01:42:22;;;;;;;1.30;1.20;;;8.20;99.90;;;;;;4957426;28;20204;-67
2020/12/21 01:44:49;;;;;;;1.50;1.40;;;8.20;99.90;;;;;;4959425;28;20172;-67
2020/12/21 01:47:16;;;;;;;1.30;1.20;;;8.10;99.90;;;;;;4958759;28;20196;-67
2020/12/21 01:49:42;;;;;;;4.32;1.25;;;8.00;99.90;;;;;;4958727;28;20694;-67
2020/12/21 01:52:09;;;;;;;1.00;1.00;;;7.90;99.90;;;;;;4958535;28;20184;-67
2020/12/21 01:54:35;;;;;;;1.20;1.20;;;7.90;99.90;;;;;;4958812;28;20542;-68
2020/12/21 01:57:01;;;;;;;1.10;1.00;;;7.80;99.90;;;;;;4958717;28;20246;-67
2020/12/21 01:59:27;;;;;;;0.97;0.97;;;7.90;99.90;;;;;;4958610;28;20258;-68
2020/12/21 02:01:53;;;;;;;1.10;0.70;;;7.90;99.90;;;;;;4958289;28;20462;-67
2020/12/21 02:04:19;;;;;;;1.20;1.08;;;7.90;99.90;;;;;;4958494;28;20175;-67
2020/12/21 02:06:47;;;;;;;1.00;1.00;;;7.90;99.90;;;;;;4958498;28;20666;-67
2020/12/21 02:09:12;;;;;;;1.20;1.10;;;7.90;99.90;;;;;;4958588;28;20171;-68
2020/12/21 02:11:42;;;;;;;1.17;1.10;;;7.80;99.90;;;;;;4958201;28;20178;-67
2020/12/21 02:14:09;;;;;;;2.05;1.15;;;7.80;99.90;;;;;;4958287;28;20536;-68
2020/12/21 02:16:35;;;;;;;1.00;1.00;;;7.70;99.90;;;;;;4958566;28;20219;-67
2020/12/21 02:19:01;;;;;;;1.80;1.20;;;7.60;99.90;;;;;;4958131;28;20197;-67
2020/12/21 02:21:27;;;;;;;1.37;1.23;;;7.50;99.90;;;;;;4958112;28;20182;-67
2020/12/21 02:23:52;;;;;;;0.80;0.80;;;7.40;99.90;;;;;;4957333;29;20433;-68
2020/12/21 02:26:18;;;;;;;1.47;1.37;;;7.40;99.90;;;;;;4958214;28;20288;-67
2020/12/21 02:28:51;;;;;;;3.03;1.40;;;7.20;99.90;;;;;;4958012;28;20173;-68
2020/12/21 02:31:17;;;;;;;0.98;0.80;;;6.90;99.90;;;;;;4958077;28;20174;-67
2020/12/21 02:33:42;;;;;;;1.43;0.90;;;6.70;99.90;;;;;;4957926;28;20257;-67
2020/12/21 02:36:08;;;;;;;6.37;1.43;;;6.60;99.90;;;;;;4958036;28;20617;-67
2020/12/21 02:38:33;;;;;;;1.43;1.20;;;6.60;99.90;;;;;;4957876;28;20284;-67
2020/12/21 02:40:59;;;;;;;5.07;1.77;;;6.50;99.90;;;;;;4957765;28;20166;-67
2020/12/21 02:43:25;;;;;;;2.30;1.17;;;6.30;99.90;;;;;;4957605;28;20670;-67
2020/12/21 02:45:50;;;;;;;0.93;0.93;;;6.20;99.90;;;;;;4958007;28;20189;-68
2020/12/21 02:48:16;;;;;;;1.93;0.87;;;6.20;99.90;;;;;;4957685;28;20173;-67
2020/12/21 02:50:42;;;;;;;4.50;1.00;;;6.20;99.90;;;;;;4957741;28;20201;-67
2020/12/21 02:53:08;;;;;;;3.20;1.25;;;6.20;99.90;;;;;;4957369;28;20313;-67
2020/12/21 02:55:33;;;;;;;5.40;1.23;;;6.20;99.90;;;;;;4957717;28;20674;-67
2020/12/21 02:57:59;;;;;;;5.10;0.97;;;6.20;99.90;;;;;;4957467;28;20221;-67
2020/12/21 03:00:25;;;;;;;1.50;1.40;;;6.30;99.90;;;;;;4957487;28;20181;-67
2020/12/21 03:02:50;;;;;;;0.87;0.87;;;6.40;99.90;;;;;;4957193;28;20201;-67
2020/12/21 03:05:16;;;;;;;1.63;1.53;;;6.50;99.90;;;;;;4957481;28;20217;-67
2020/12/21 03:07:41;;;;;;;0.70;0.70;;;6.60;99.90;;;;;;4957487;28;20759;-67
2020/12/21 03:10:07;;;;;;;2.53;1.17;;;6.50;99.90;;;;;;4957426;28;20173;-68
2020/12/21 03:12:33;;;;;;;0.57;0.57;;;6.40;99.90;;;;;;4957061;28;20178;-67
2020/12/21 03:14:58;;;;;;;1.03;0.70;;;6.30;99.90;;;;;;4957581;28;20173;-67
2020/12/21 03:17:24;;;;;;;1.03;0.87;;;6.50;99.90;;;;;;4957090;28;20204;-67
2020/12/21 03:19:49;;;;;;;2.53;1.20;;;6.70;99.90;;;;;;4957170;28;20201;-67
2020/12/21 03:22:15;;;;;;;1.87;1.20;;;6.90;99.90;;;;;;4956964;28;20197;-67
2020/12/21 03:24:41;;;;;;;2.37;1.00;;;7.00;99.90;;;;;;4957229;28;20663;-68
2020/12/21 03:27:06;;;;;;;2.87;1.50;;;7.00;99.90;;;;;;4956944;28;20202;-67
2020/12/21 03:29:32;;;;;;;1.07;1.03;;;7.00;99.90;;;;;;4956924;28;20171;-67
2020/12/21 03:31:58;;;;;;;4.40;1.50;;;7.10;99.90;;;;;;4956757;28;20329;-67
2020/12/21 03:34:23;;;;;;;3.07;1.67;;;7.10;99.90;;;;;;4955695;29;20413;-67
2020/12/21 03:36:49;;;;;;;1.33;1.23;;;7.30;99.90;;;;;;4956942;28;20206;-68
2020/12/21 03:39:15;;;;;;;3.00;1.20;;;7.30;99.90;;;;;;4956668;28;20276;-67
2020/12/21 03:41:40;;;;;;;0.70;0.70;;;7.30;99.90;;;;;;4956549;28;20349;-67
2020/12/21 03:44:06;;;;;;;1.30;1.20;;;7.30;99.90;;;;;;4956833;28;20171;-67
2020/12/21 03:46:32;;;;;;;1.30;1.20;;;7.20;99.90;;;;;;4956564;28;20228;-67
2020/12/21 03:48:57;;;;;;;3.07;1.57;;;7.20;99.90;;;;;;4956774;28;20174;-67
2020/12/21 03:51:23;;;;;;;3.13;1.40;;;7.20;99.90;;;;;;4956412;28;20173;-67
2020/12/21 03:53:48;;;;;;;2.43;1.50;;;7.30;99.90;;;;;;4956684;29;20177;-68
2020/12/21 03:56:14;;;;;;;2.00;1.63;;;7.30;99.90;;;;;;4956344;28;20186;-67
2020/12/21 03:58:40;;;;;;;2.10;1.57;;;7.20;99.90;;;;;;4956298;28;20174;-67
2020/12/21 04:01:05;;;;;;;2.60;1.40;;;7.20;99.90;;;;;;4956209;28;20169;-68
2020/12/21 04:03:31;;;;;;;2.73;1.67;;;7.10;99.90;;;;;;4956065;28;20671;-67
2020/12/21 04:05:57;;;;;;;2.00;1.00;;;7.20;99.90;;;;;;4955968;28;20186;-68
2020/12/21 04:08:23;;;;;;;1.40;1.30;;;7.20;99.90;;;;;;4956228;28;20173;-67
2020/12/21 04:10:49;;;;;;;0.80;0.80;;;7.00;99.90;;;;;;4956368;28;20526;-67
2020/12/21 04:13:15;;;;;;;1.10;1.00;;;6.70;99.90;;;;;;4955966;28;20419;-67
2020/12/21 04:15:41;;;;;;;4.05;1.30;;;6.60;99.90;;;;;;4956036;28;20181;-67
2020/12/21 04:18:06;;;;;;;7.10;1.60;;;6.70;99.90;;;;;;4956209;28;20574;-67
2020/12/21 04:20:33;;;;;;;1.27;1.03;;;6.70;99.90;;;;;;4956212;28;20413;-67
2020/12/21 04:22:59;;;;;;;1.42;1.08;;;6.70;99.90;;;;;;4954596;29;20697;-67
2020/12/21 04:25:25;;;;;;;3.58;1.15;;;6.60;99.90;;;;;;4955919;28;20707;-67
2020/12/21 04:27:51;;;;;;;1.50;1.40;;;6.60;99.90;;;;;;4956250;28;20185;-67
2020/12/21 04:30:17;;;;;;;1.10;1.03;;;6.50;99.90;;;;;;4955871;28;20178;-67
2020/12/21 04:32:42;;;;;;;0.80;0.80;;;6.50;99.90;;;;;;4955751;28;20524;-67
2020/12/21 04:35:08;;;;;;;4.20;1.20;;;6.30;99.90;;;;;;4955873;28;20182;-68
2020/12/21 04:37:34;;;;;;;3.93;0.90;;;6.10;99.90;;;;;;4955635;28;20248;-68
2020/12/21 04:40:00;;;;;;;0.60;0.60;;;6.10;99.90;;;;;;4955894;28;20240;-67
2020/12/21 04:42:26;;;;;;;1.60;1.50;;;6.20;99.90;;;;;;4955416;28;20456;-67
2020/12/21 04:44:52;;;;;;;0.60;0.60;;;6.10;99.90;;;;;;4955676;28;20639;-67
2020/12/21 04:47:18;;;;;;;0.90;0.70;;;6.20;99.90;;;;;;4955555;28;20429;-67
2020/12/21 04:49:44;;;;;;;5.68;1.58;;;6.20;99.90;;;;;;4955818;28;20241;-67
2020/12/21 04:52:12;;;;;;;3.15;1.00;;;6.20;99.90;;;;;;4955377;28;20178;-67
2020/12/21 04:54:37;;;;;;;1.98;1.20;;;6.30;99.90;;;;;;4955702;28;20177;-68
2020/12/21 04:57:03;;;;;;;1.83;1.10;;;6.30;99.90;;;;;;4955447;28;20197;-67
2020/12/21 04:59:29;;;;;;;0.90;0.80;;;6.20;99.90;;;;;;4955478;28;20767;-67
2020/12/21 05:01:55;;;;;;;2.25;0.80;;;6.20;99.90;;;;;;4955310;28;20539;-68
2020/12/21 05:04:25;;;;;;;4.20;1.60;;;6.30;99.90;;;;;;4955517;28;20606;-67
2020/12/21 05:06:56;;;;;;;1.00;1.00;;;6.40;99.90;;;;;;4955305;28;20181;-67
2020/12/21 05:09:26;;;;;;;1.80;0.70;;;6.50;99.90;;;;;;4955353;28;20538;-67
2020/12/21 05:12:03;;;;;;;1.50;1.42;;;6.50;99.90;;;;;;4955354;28;20256;-67
2020/12/21 05:14:34;;;;;;;2.00;1.65;;;6.50;99.90;;;;;;4955586;28;20538;-67
2020/12/21 05:17:11;;;;;;;1.25;1.15;;;6.50;99.90;;;;;;4956115;28;20245;-67
2020/12/21 05:19:37;;;;;;;0.60;0.60;;;6.40;99.90;;;;;;4959234;28;20177;-67
2020/12/21 05:22:08;;;;;;;0.93;0.93;;;6.40;99.90;;;;;;4958931;29;20204;-67
2020/12/21 05:24:34;;;;;;;0.73;0.73;;;6.30;99.90;;;;;;4959299;28;20526;-67
2020/12/21 05:27:15;;;;;;;1.10;0.80;;;6.20;99.90;;;;;;4959200;28;20189;-67
2020/12/21 05:29:40;;;;;;;1.02;0.93;;;6.30;99.90;;;;;;4959355;28;20181;-67
2020/12/21 05:32:17;;;;;;;1.93;1.23;;;6.30;99.90;;;;;;4959000;28;20182;-67
2020/12/21 05:34:43;;;;;;;5.25;1.00;;;6.20;99.90;;;;;;4959265;28;20165;-67
2020/12/21 05:37:13;;;;;;;1.90;0.80;;;6.30;99.90;;;;;;4958889;28;20719;-67
2020/12/21 05:39:49;;;;;;;0.77;0.77;;;6.50;99.90;;;;;;4959005;28;20208;-67
2020/12/21 05:42:14;;;;;;;1.02;1.02;;;6.60;99.90;;;;;;4958621;28;20344;-67
2020/12/21 05:44:54;;;;;;;1.50;1.37;;;6.70;99.90;;;;;;4959000;28;20644;-67
2020/12/21 05:47:21;;;;;;;1.25;1.15;;;6.80;99.90;;;;;;4958741;28;20425;-67
2020/12/21 05:49:55;;;;;;;1.20;0.98;;;6.70;99.90;;;;;;4958847;28;20177;-67
2020/12/21 05:52:29;;;;;;;1.05;0.80;;;6.70;99.90;;;;;;4958481;28;20172;-67
2020/12/21 05:54:55;;;;;;;1.60;1.30;;;6.50;99.90;;;;;;4958903;28;20173;-67
2020/12/21 05:57:21;;;;;;;0.70;0.70;;;6.20;99.90;;;;;;4958760;28;20193;-67
2020/12/21 05:59:50;;;;;;;2.20;0.97;;;6.00;99.90;;;;;;4958798;28;20165;-67
2020/12/21 06:02:19;;;;;;;2.97;1.10;;;5.90;99.90;;;;;;4958603;28;20456;-67
2020/12/21 06:05:05;;;;;;;0.80;0.80;;;5.90;99.90;;;;;;4958588;28;20174;-67
2020/12/21 06:07:32;;;;;;;0.90;0.90;;;5.90;99.90;;;;;;4958594;28;20189;-67
2020/12/21 06:10:00;;;;;;;1.42;1.35;;;6.00;99.90;;;;;;4958576;28;20200;-68
2020/12/21 06:12:28;;;;;;;2.70;2.47;;;5.90;99.90;;;;;;4958163;28;20176;-67
2020/12/21 06:15:01;;;;;;;2.95;1.70;;;5.80;99.90;;;;;;4958377;28;20182;-67
2020/12/21 06:17:30;;;;;;;1.95;1.75;;;5.70;99.90;;;;;;4958269;28;20204;-68
2020/12/21 06:20:05;;;;;;;4.22;2.15;;;5.50;99.90;;;;;;4958361;28;20180;-67
2020/12/21 06:22:31;;;;;;;4.65;1.20;;;5.50;99.90;;;;;;4957999;28;20732;-67
2020/12/21 06:24:57;;;;;;;5.13;1.80;;;5.50;99.90;;;;;;4958156;28;20181;-67
2020/12/21 06:27:22;;;;;;;1.90;1.80;;;5.50;99.90;;;;;;4957542;28;20559;-67
2020/12/21 06:29:58;;;;;;;3.07;1.70;;;5.60;99.90;;;;;;4958158;28;20174;-67
2020/12/21 06:32:31;;;;;;;2.60;1.20;;;5.70;99.90;;;;;;4957966;28;20264;-67
2020/12/21 06:34:57;;;;;;;0.90;0.90;;;5.80;99.90;;;;;;4958230;28;20572;-67
2020/12/21 06:37:24;;;;;;;1.95;1.75;;;5.90;99.90;;;;;;4957887;28;20541;-67
2020/12/21 06:40:04;;;;;;;4.10;2.70;;;5.90;99.90;;;;;;4957836;28;20185;-67
2020/12/21 06:42:30;;;;;;;3.88;2.50;;;5.90;99.90;;;;;;4957685;28;20200;-67
2020/12/21 06:44:57;;;;;;;3.60;2.70;;;5.80;99.90;;;;;;4957929;28;20257;-67
2020/12/21 06:47:24;;;;;;;1.38;1.27;;;5.70;99.90;;;;;;4957795;28;20236;-67
2020/12/21 06:49:50;;;;;;;1.70;1.60;;;5.70;99.90;;;;;;4957624;28;20165;-67
2020/12/21 06:52:16;;;;;;;4.70;2.38;;;5.80;99.90;;;;;;4957631;28;20181;-67
2020/12/21 06:54:43;;;;;;;3.27;2.53;;;5.80;99.90;;;;;;4957652;28;20546;-68
2020/12/21 06:57:09;;;;;;;9.80;2.88;;;5.90;99.90;;;;;;4957542;28;20440;-67
2020/12/21 06:59:35;;;;;;;8.13;2.65;;;5.90;99.90;;;;;;4957479;28;20264;-67
2020/12/21 07:02:00;;;;;;;6.50;3.47;;;6.00;99.90;;;;;;4957196;28;20308;-67
2020/12/21 07:04:33;;;;;;;3.13;2.57;;;5.90;99.90;;;;;;4957632;28;20174;-67
2020/12/21 07:07:03;;;;;;;2.40;1.98;;;5.80;99.90;;;;;;4957297;28;20555;-67
2020/12/21 07:09:31;;;;;;;2.65;1.55;;;5.90;99.90;;;;;;4957502;28;20174;-68
2020/12/21 07:12:01;;;;;;;6.70;2.85;;;6.10;99.90;;;;;;4957137;28;20224;-68
2020/12/21 07:14:28;;;;;;;5.13;2.08;;;6.10;99.90;;;;;;4957376;28;20176;-67
2020/12/21 07:17:11;;;;;;;2.97;1.75;;;6.30;99.90;;;;;;4957376;28;20219;-67
2020/12/21 07:19:39;;;;;;;3.20;1.85;;;6.30;99.90;;;;;;4957302;28;20173;-67
2020/12/21 07:22:05;;;;;;;2.13;1.98;;;6.40;99.90;;;;;;4956864;28;20224;-67
2020/12/21 07:24:31;;;;;;;2.10;2.00;;;6.50;99.90;;;;;;4957237;28;20683;-67
2020/12/21 07:26:57;;;;;;;2.50;2.20;;;6.50;99.90;;;;;;4956988;28;20221;-67
2020/12/21 07:29:23;;;;;;;2.30;1.60;;;6.60;99.90;;;;;;4957172;28;20409;-67
2020/12/21 07:31:49;;;;;;;3.37;1.77;;;6.60;99.90;;;;;;4956813;28;20174;-67
2020/12/21 07:34:15;;;;;;;1.88;1.58;;;6.50;99.90;;;;;;4956964;28;20173;-67
2020/12/21 07:36:41;;;;;;;3.42;1.95;;;6.50;99.90;;;;;;4956760;28;20226;-67
2020/12/21 07:39:11;;;;;;;1.33;1.27;;;6.60;99.90;;;;;;4955895;28;20600;-68
2020/12/21 07:41:44;;;;;;;1.42;1.33;;;6.70;99.90;;;;;;4956805;28;20501;-67
2020/12/21 07:44:21;;;;;;;2.17;1.50;;;6.80;99.90;;;;;;4956934;28;20178;-67
2020/12/21 07:47:06;;;;;;;1.95;1.85;;;6.90;99.90;;;;;;4956648;28;20201;-67
2020/12/21 07:49:34;;;;;;;4.63;3.85;;;7.00;99.70;;;;;;4956587;28;20205;-67
2020/12/21 07:52:04;;;;;;;4.13;2.65;;;7.00;99.50;;;;;;4956553;28;20532;-67
2020/12/21 07:54:40;;;;;;;5.53;3.67;;;7.10;99.40;;;;;;4956475;28;20177;-67
2020/12/21 07:57:07;;;;;;;3.53;2.15;;;7.00;99.40;;;;;;4956490;28;20256;-67
2020/12/21 07:59:33;;;;;;;5.75;4.18;;;7.10;99.80;;;;;;4956552;28;20174;-67
2020/12/21 08:02:03;;;;;;;4.87;2.67;;;7.20;99.50;;;;;;4956109;28;20256;-67
2020/12/21 08:04:29;;;;;;;2.72;2.17;;;7.20;99.40;;;;;;4956486;28;20249;-67
2020/12/21 08:07:07;;;;;;;2.00;1.80;;;7.30;99.30;;;;;;4956190;28;20288;-67
2020/12/21 08:09:37;;;;;;;3.80;2.85;;;7.40;99.30;;;;;;4956325;28;20249;-67
2020/12/21 08:12:14;;;;;;;4.32;1.92;;;7.40;99.20;;;;;;4956018;28;20220;-67
2020/12/21 08:14:40;;;;;;;11.93;2.38;;;7.40;99.20;;;;;;4956285;28;20179;-67
2020/12/21 08:17:17;;;;;;;2.72;1.80;;;7.50;99.20;;;;;;4955990;28;20233;-68
2020/12/21 08:19:46;;;;;;;3.53;3.22;;;7.50;99.20;;;;;;4956106;28;20173;-67
2020/12/21 08:22:11;;;;;;;4.57;3.25;;;7.50;99.00;;;;;;4955878;28;20197;-68
2020/12/21 08:24:37;;;;;;;8.33;4.63;;;7.50;98.80;;;;;;4956086;28;20510;-67
2020/12/21 08:27:04;;;;;;;5.10;3.70;;;7.50;99.00;;;;;;4956030;28;20194;-67
2020/12/21 08:29:30;;;;;;;10.02;4.47;;;7.50;99.00;;;;;;4955861;28;20547;-68
2020/12/21 08:31:55;;;;;;;3.80;3.57;;;7.50;98.90;;;;;;4956023;28;20170;-67
2020/12/21 08:34:21;;;;;;;9.90;5.77;;;7.60;98.90;;;;;;4954630;28;20180;-68
2020/12/21 08:36:46;;;;;;;9.50;7.27;;;7.60;98.80;;;;;;4955705;28;20197;-67
2020/12/21 08:39:19;;;;;;;5.00;4.50;;;7.70;98.90;;;;;;4955722;28;20186;-68
2020/12/21 08:41:50;;;;;;;4.68;3.67;;;7.70;98.90;;;;;;4955473;28;20222;-67
2020/12/21 08:44:23;;;;;;;8.00;4.40;;;7.80;99.10;;;;;;4955701;28;20174;-68
2020/12/21 08:46:56;;;;;;;6.07;4.55;;;7.80;99.00;;;;;;4955599;28;20191;-67
2020/12/21 08:49:23;;;;;;;6.60;4.75;;;7.90;98.90;;;;;;4955697;28;20551;-67
2020/12/21 08:51:49;;;;;;;5.40;4.80;;;7.90;98.70;;;;;;4955248;28;20178;-68
2020/12/21 08:54:15;;;;;;;6.00;5.40;;;7.90;98.60;;;;;;4955459;28;20169;-67
2020/12/21 08:56:48;;;;;;;6.13;5.67;;;7.90;98.40;;;;;;4955473;28;20212;-67
2020/12/21 08:59:14;;;;;;;8.75;5.88;;;7.90;98.50;;;;;;4955736;28;20170;-67
2020/12/21 09:01:41;;;;;;;11.48;5.32;;;7.90;98.50;;;;;;4955355;28;20656;-67
2020/12/21 09:04:07;;;;;;;6.00;5.40;;;7.90;98.50;;;;;;4955662;28;20578;-68
2020/12/21 09:06:33;;;;;;;9.27;4.75;;;8.00;98.50;;;;;;4955398;28;20660;-67
2020/12/21 09:08:58;;;;;;;6.13;4.83;;;7.90;98.50;;;;;;4955386;28;20169;-67
2020/12/21 09:11:25;;;;;;;6.20;4.63;;;7.90;98.70;;;;;;4955409;28;20418;-67
2020/12/21 09:13:50;;;;;;;6.25;4.00;;;8.00;98.90;;;;;;4955582;28;20180;-67
2020/12/21 09:16:21;;;;;;;7.30;5.70;;;8.00;98.80;;;;;;4955420;28;20575;-68
2020/12/21 09:18:47;;;;;;;7.95;5.97;;;8.00;98.70;;;;;;4955455;28;20221;-67
2020/12/21 09:21:27;;;;;;;6.00;4.32;;;8.10;98.60;;;;;;4955271;28;20186;-67
2020/12/21 09:23:55;;;;;;;11.65;5.90;;;8.10;98.50;;;;;;4955475;28;20186;-67
2020/12/21 09:26:21;;;;;;;7.85;5.35;;;8.10;98.50;;;;;;4955211;28;20555;-67
2020/12/21 09:28:49;;;;;;;5.70;4.40;;;8.10;98.60;;;;;;4955231;28;20256;-67
2020/12/21 09:31:16;;;;;;;9.43;6.40;;;8.00;98.50;;;;;;4955120;28;20184;-67
2020/12/21 09:33:42;;;;;;;6.40;5.53;;;8.20;98.60;;;;;;4955408;28;20189;-67
2020/12/21 09:36:09;;;;;;;5.40;4.90;;;8.20;98.50;;;;;;4955232;28;20240;-67
2020/12/21 09:38:35;;;;;;;6.55;5.35;;;8.30;98.60;;;;;;4955047;28;20224;-67
2020/12/21 09:41:01;;;;;;;6.93;4.90;;;8.30;98.50;;;;;;4955018;28;20189;-68
2020/12/21 09:43:27;;;;;;;5.43;4.83;;;8.30;98.40;;;;;;4955247;28;20590;-68
2020/12/21 09:45:53;;;;;;;7.85;4.70;;;8.40;98.50;;;;;;4955107;28;20211;-68
2020/12/21 09:48:18;;;;;;;7.90;6.53;;;8.40;98.30;;;;;;4955110;28;20654;-67
2020/12/21 09:50:45;;;;;;;7.90;5.77;;;8.40;98.20;;;;;;4954951;28;20261;-67
2020/12/21 09:53:10;;;;;;;9.73;7.22;;;8.50;98.10;;;;;;4954859;28;20171;-67
2020/12/21 09:55:38;;;;;;;11.40;7.23;;;8.50;98.00;;;;;;4954996;28;20243;-67
2020/12/21 09:58:04;;;;;;;10.10;8.05;;;8.50;97.90;;;;;;4954950;28;20176;-67
2020/12/21 10:00:30;;;;;;;10.98;7.50;;;8.50;98.00;;;;;;4955105;28;20184;-67
2020/12/21 10:02:56;;;;;;;9.57;6.30;;;8.60;98.00;;;;;;4956589;28;20198;-67
2020/12/21 10:05:21;;;;;;;7.17;5.03;;;8.70;98.00;;;;;;4958908;28;20236;-67
2020/12/21 10:07:47;;;;;;;8.03;6.10;;;8.70;98.00;;;;;;4958377;28;20200;-67
2020/12/21 10:10:12;;;;;;;9.57;4.97;;;8.80;98.10;;;;;;4957271;29;20177;-67
2020/12/21 10:12:38;;;;;;;9.90;7.37;;;8.80;98.10;;;;;;4958298;28;20210;-67
2020/12/21 10:15:04;;;;;;;17.13;10.10;;;8.80;98.00;;;;;;4958443;28;20179;-67
2020/12/21 10:17:30;;;;;;;12.48;9.93;;;8.80;97.90;;;;;;4958164;28;20522;-67
2020/12/21 10:19:56;;;;;;;10.40;6.60;;;8.70;98.00;;;;;;4958219;28;20308;-68
2020/12/21 10:22:21;;;;;;;10.73;8.70;;;8.70;98.30;;;;;;4958002;28;20211;-67
2020/12/21 10:24:47;;;;;;;12.60;9.97;;;8.70;98.40;;;;;;4958383;28;20649;-67
2020/12/21 10:27:12;;;;;;;12.40;9.97;;;8.80;98.40;;;;;;4956787;28;20291;-67
2020/12/21 10:29:39;;;;;;;19.27;10.00;;;8.80;98.40;;;;;;4958199;28;20256;-68
2020/12/21 10:32:04;;;;;;;9.45;7.25;;;8.70;98.40;;;;;;4957915;28;20183;-67
2020/12/21 10:34:30;;;;;;;9.57;8.57;;;8.70;98.40;;;;;;4957920;28;20185;-67
2020/12/21 10:36:56;;;;;;;11.50;9.03;;;8.70;98.60;;;;;;4958063;28;20193;-67
2020/12/21 10:39:21;;;;;;;14.77;10.87;;;8.70;98.60;;;;;;4957811;28;20443;-67
2020/12/21 10:41:48;;;;;;;18.53;14.57;;;8.70;98.40;;;;;;4957835;28;20259;-68
2020/12/21 10:44:13;;;;;;;16.85;12.23;;;8.70;98.50;;;;;;4956699;28;20647;-67
2020/12/21 10:46:39;;;;;;;10.97;8.37;;;8.70;98.50;;;;;;4957715;28;20243;-67
2020/12/21 10:49:05;;;;;;;11.43;8.07;;;8.50;98.80;;;;;;4957897;28;20478;-68
2020/12/21 10:51:32;;;;;;;16.17;9.97;;;8.60;98.90;;;;;;4957498;28;20180;-67
2020/12/21 10:53:59;;;;;;;11.80;9.05;;;8.60;99.00;;;;;;4957835;28;20176;-67
2020/12/21 10:56:25;;;;;;;14.00;9.50;;;8.50;99.10;;;;;;4957511;28;20206;-68
2020/12/21 10:58:51;;;;;;;10.15;7.75;;;8.50;99.40;;;;;;4957658;28;20179;-67
2020/12/21 11:01:18;;;;;;;7.28;6.57;;;8.70;99.60;;;;;;4957442;28;20688;-68
2020/12/21 11:03:44;;;;;;;10.60;6.00;;;8.70;99.60;;;;;;4957620;28;20208;-68
2020/12/21 11:06:10;;;;;;;6.53;5.40;;;8.80;99.60;;;;;;4957375;28;20208;-68
2020/12/21 11:08:36;;;;;;;5.37;4.87;;;8.90;99.30;;;;;;4957391;28;20172;-68
2020/12/21 11:11:02;;;;;;;5.73;4.50;;;9.00;99.20;;;;;;4957335;28;20180;-67
2020/12/21 11:13:27;;;;;;;6.23;4.63;;;9.10;99.20;;;;;;4957328;28;20467;-67
2020/12/21 11:15:53;;;;;;;3.80;3.40;;;9.10;99.20;;;;;;4957208;28;20670;-67
2020/12/21 11:18:19;;;;;;;4.95;4.45;;;9.10;99.30;;;;;;4957027;28;20208;-67
2020/12/21 11:20:45;;;;;;;3.47;2.90;;;9.10;99.30;;;;;;4957102;28;20203;-68
2020/12/21 11:23:11;;;;;;;7.73;5.77;;;9.20;99.30;;;;;;4956867;28;20241;-68
2020/12/21 11:25:37;;;;;;;7.78;5.72;;;9.30;99.10;;;;;;4957118;28;20401;-67
2020/12/21 11:28:04;;;;;;;5.23;4.83;;;9.40;98.80;;;;;;4957042;28;20177;-68
2020/12/21 11:30:31;;;;;;;6.75;5.15;;;9.50;98.70;;;;;;4957126;28;20492;-68
2020/12/21 11:32:57;;;;;;;7.32;6.20;;;9.50;98.70;;;;;;4956779;28;20169;-67
2020/12/21 11:35:23;;;;;;;7.38;5.95;;;9.40;98.60;;;;;;4956909;28;20635;-67
2020/12/21 11:37:49;;;;;;;7.30;6.35;;;9.30;99.00;;;;;;4956613;28;20194;-67
2020/12/21 11:40:15;;;;;;;8.43;4.68;;;9.00;99.40;;;;;;4957000;28;20192;-67
2020/12/21 11:42:40;;;;;;;4.40;3.97;;;8.80;99.50;;;;;;4956624;28;20212;-67
2020/12/21 11:45:06;;;;;;;7.20;5.70;;;8.80;99.80;;;;;;4956813;28;20179;-68
2020/12/21 11:47:33;;;;;;;5.13;3.57;;;8.70;99.90;;;;;;4956599;28;20193;-67
2020/12/21 11:49:59;;;;;;;4.75;4.25;;;8.70;99.90;;;;;;4956607;28;20251;-67
2020/12/21 11:52:24;;;;;;;6.27;3.70;;;8.90;99.90;;;;;;4956488;28;20220;-67
2020/12/21 11:54:50;;;;;;;5.10;4.07;;;9.10;99.70;;;;;;4956635;28;20511;-68
2020/12/21 11:57:15;;;;;;;3.93;3.63;;;9.30;99.60;;;;;;4956527;28;20197;-68
2020/12/21 11:59:41;;;;;;;3.37;3.07;;;9.80;99.40;;;;;;4956411;28;20180;-67
2020/12/21 12:02:07;;;;;;;3.27;2.97;;;10.10;98.40;;;;;;4956195;28;20197;-67
2020/12/21 12:04:33;;;;;;;3.78;3.45;;;10.60;97.10;;;;;;4956366;28;20174;-68
2020/12/21 12:07:02;;;;;;;4.13;3.17;;;10.70;96.50;;;;;;4956229;28;20186;-67
2020/12/21 12:09:28;;;;;;;5.80;3.85;;;10.80;96.30;;;;;;4956331;28;20176;-67
2020/12/21 12:11:55;;;;;;;3.58;2.78;;;10.90;95.70;;;;;;4956075;28;20212;-68
2020/12/21 12:14:21;;;;;;;3.53;3.22;;;11.00;95.70;;;;;;4956226;28;20200;-68
2020/12/21 12:16:48;;;;;;;3.47;3.17;;;11.10;95.30;;;;;;4956044;28;20687;-67
2020/12/21 12:19:14;;;;;;;4.68;3.00;;;11.20;94.80;;;;;;4956130;28;20405;-68
2020/12/21 12:21:40;;;;;;;4.60;3.60;;;11.30;94.70;;;;;;4956098;28;20205;-68
2020/12/21 12:24:05;;;;;;;5.00;3.80;;;11.20;94.50;;;;;;4956138;28;20648;-68
2020/12/21 12:26:31;;;;;;;7.40;3.13;;;10.90;95.00;;;;;;4955531;28;20204;-67
2020/12/21 12:28:57;;;;;;;3.90;3.20;;;10.50;95.40;;;;;;4955825;28;20177;-67
2020/12/21 12:31:23;;;;;;;3.63;3.33;;;10.30;95.90;;;;;;4955749;28;20174;-67
2020/12/21 12:33:50;;;;;;;5.05;3.83;;;10.00;96.00;;;;;;4956070;28;20169;-68
2020/12/21 12:36:20;;;;;;;4.88;3.90;;;9.70;97.10;;;;;;4956041;28;20556;-67
2020/12/21 12:38:46;;;;;;;4.03;3.60;;;9.60;97.50;;;;;;4955776;28;20193;-68
2020/12/21 12:41:12;;;;;;;4.10;3.77;;;9.60;97.50;;;;;;4955697;28;20181;-67
2020/12/21 12:43:38;;;;;;;4.18;3.72;;;9.80;97.10;;;;;;4955740;28;20520;-68
2020/12/21 12:46:05;;;;;;;3.80;3.23;;;9.80;97.10;;;;;;4955759;28;20759;-67
2020/12/21 12:48:31;;;;;;;5.00;4.50;;;9.70;97.00;;;;;;4955608;28;20484;-67
2020/12/21 12:50:56;;;;;;;5.33;4.00;;;9.90;97.00;;;;;;4955572;28;20276;-67
2020/12/21 12:53:22;;;;;;;4.13;3.13;;;10.00;96.10;;;;;;4955832;28;20413;-67
2020/12/21 12:55:48;;;;;;;4.70;3.70;;;10.00;96.10;;;;;;4955700;28;20178;-67